createdAt,value
2022-11-06T00:01:54.559Z,100672.53
2022-11-06T00:03:59.142Z,100668.95
2022-11-06T00:06:03.497Z,100668.06
2022-11-06T00:08:07.858Z,100667.28
2022-11-06T00:10:12.359Z,100670.61
2022-11-06T00:12:16.691Z,100674.52
2022-11-06T00:14:21.071Z,100669.84
2022-11-06T00:16:25.415Z,100670.33
2022-11-06T00:18:29.798Z,100666.68
2022-11-06T00:20:34.141Z,100664.36
2022-11-06T00:22:38.450Z,100667.8
2022-11-06T00:24:42.822Z,100671.23
2022-11-06T00:26:54.637Z,100675.11
2022-11-06T00:28:59.195Z,100675.23
2022-11-06T00:31:03.726Z,100678.81
2022-11-06T00:33:08.115Z,100681.88
2022-11-06T00:35:12.454Z,100674.55
2022-11-06T00:37:16.796Z,100674.25
2022-11-06T00:39:21.122Z,100675.5
2022-11-06T00:41:25.516Z,100676.48
2022-11-06T00:43:29.887Z,100676.55
2022-11-06T00:45:34.229Z,100680.91
2022-11-06T00:47:38.620Z,100683.63
2022-11-06T00:49:42.954Z,100686.42
2022-11-06T00:51:47.266Z,100684.89
2022-11-06T00:53:51.617Z,100683.28
2022-11-06T00:55:55.986Z,100680.91
2022-11-06T00:58:00.329Z,100684.78
2022-11-06T01:00:04.692Z,100680.08
2022-11-06T01:02:09.310Z,100680.05
2022-11-06T01:04:13.922Z,100684.09
2022-11-06T01:06:18.285Z,100683.45
2022-11-06T01:08:22.674Z,100683.89
2022-11-06T01:10:27.020Z,100685.24
2022-11-06T01:12:31.359Z,100688.81
2022-11-06T01:14:35.719Z,100685.88
2022-11-06T01:16:40.033Z,100688.13
2022-11-06T01:18:44.357Z,100680.67
2022-11-06T01:20:48.705Z,100684.55
2022-11-06T01:22:53.033Z,100685.8
2022-11-06T01:24:57.601Z,100688.83
2022-11-06T01:27:32.150Z,100685.42
2022-11-06T01:29:36.577Z,100683.41
2022-11-06T01:31:40.933Z,100683.03
2022-11-06T01:33:45.299Z,100680.88
2022-11-06T01:35:49.695Z,100677.64
2022-11-06T01:37:54.034Z,100679.88
2022-11-06T01:39:58.405Z,100679.1
2022-11-06T01:42:02.854Z,100681.48
2022-11-06T01:44:10.787Z,100681.58
2022-11-06T01:46:15.130Z,100681.45
2022-11-06T01:48:19.520Z,100683.89
2022-11-06T01:50:23.853Z,100684.88
2022-11-06T01:52:28.253Z,100682.45
2022-11-06T01:54:32.589Z,100680.2
2022-11-06T01:56:36.964Z,100682.55
2022-11-06T01:58:41.324Z,100679.95
2022-11-06T02:00:45.802Z,100672.58
2022-11-06T02:02:50.766Z,100676.86
2022-11-06T02:04:55.482Z,100679.23
2022-11-06T02:06:59.818Z,100675.96
2022-11-06T02:09:04.170Z,100682.05
2022-11-06T02:11:08.487Z,100681.5
2022-11-06T02:13:12.855Z,100679.94
2022-11-06T02:15:17.174Z,100683
2022-11-06T02:17:21.503Z,100679.5
2022-11-06T02:19:25.846Z,100689.67
2022-11-06T02:21:30.158Z,100684.44
2022-11-06T02:23:34.523Z,100682.25
2022-11-06T02:25:38.848Z,100683.17
2022-11-06T02:27:43.176Z,100684.16
2022-11-06T02:29:47.538Z,100679.39
2022-11-06T02:31:51.887Z,100678.05
2022-11-06T02:33:56.266Z,100673.66
2022-11-06T02:36:00.618Z,100676.2
2022-11-06T02:38:04.934Z,100674.01
2022-11-06T02:40:09.296Z,100674.78
2022-11-06T02:42:13.789Z,100679.41
2022-11-06T02:44:18.153Z,100678.99
2022-11-06T02:46:22.469Z,100679.74
2022-11-06T02:48:26.812Z,100680.09
2022-11-06T02:50:31.164Z,100681.15
2022-11-06T02:52:35.528Z,100681.22
2022-11-06T02:54:39.859Z,100678.53
2022-11-06T02:56:44.198Z,100680.2
2022-11-06T02:58:50.275Z,100682.28
2022-11-06T03:00:54.588Z,100682.78
2022-11-06T03:02:59.352Z,100685.59
2022-11-06T03:05:04.049Z,100688.92
2022-11-06T03:07:08.563Z,100691.05
2022-11-06T03:09:12.931Z,100687.77
2022-11-06T03:11:17.260Z,100685.75
2022-11-06T03:13:21.577Z,100678.16
2022-11-06T03:15:25.912Z,100675.77
2022-11-06T03:17:30.284Z,100669.28
2022-11-06T03:19:34.685Z,100667.38
2022-11-06T03:21:39.004Z,100668.91
2022-11-06T03:23:43.360Z,100663.56
2022-11-06T03:25:47.955Z,100660.09
2022-11-06T03:27:52.256Z,100663.83
2022-11-06T03:29:56.557Z,100664.47
2022-11-06T03:32:00.941Z,100669.3
2022-11-06T03:34:05.255Z,100671.02
2022-11-06T03:36:09.618Z,100672.44
2022-11-06T03:38:14.654Z,100669.41
2022-11-06T03:40:19.671Z,100671.61
2022-11-06T03:42:24.037Z,100666.11
2022-11-06T03:44:28.400Z,100667.19
2022-11-06T03:46:32.750Z,100674.22
2022-11-06T03:48:37.077Z,100675.23
2022-11-06T03:50:41.438Z,100677.39
2022-11-06T03:52:45.797Z,100672.52
2022-11-06T03:54:50.143Z,100674.63
2022-11-06T03:56:54.493Z,100679.41
2022-11-06T03:58:59.074Z,100677.73
2022-11-06T04:01:03.617Z,100677.09
2022-11-06T04:03:08.346Z,100677.45
2022-11-06T04:05:12.815Z,100677.68
2022-11-06T04:07:17.171Z,100676.96
2022-11-06T04:09:21.532Z,100673.63
2022-11-06T04:11:25.874Z,100673.08
2022-11-06T04:13:30.197Z,100668.02
2022-11-06T04:15:34.560Z,100667.67
2022-11-06T04:17:38.954Z,100667.56
2022-11-06T04:19:43.298Z,100667.63
2022-11-06T04:21:47.636Z,100670.41
2022-11-06T04:23:52.014Z,100676.83
2022-11-06T04:25:56.389Z,100681.51
2022-11-06T04:28:00.790Z,100680.02
2022-11-06T04:30:05.134Z,100681.33
2022-11-06T04:32:09.514Z,100679.99
2022-11-06T04:34:13.961Z,100678.14
2022-11-06T04:36:18.291Z,100671.81
2022-11-06T04:38:22.633Z,100671.67
2022-11-06T04:40:26.992Z,100668.37
2022-11-06T04:42:31.334Z,100668.09
2022-11-06T04:44:35.691Z,100670.06
2022-11-06T04:46:40.027Z,100669.66
2022-11-06T04:48:44.394Z,100668.83
2022-11-06T04:50:48.718Z,100667.97
2022-11-06T04:52:53.068Z,100668.7
2022-11-06T04:54:57.400Z,100664.22
2022-11-06T04:57:01.710Z,100667.88
2022-11-06T04:59:06.058Z,100671.84
2022-11-06T05:01:10.592Z,100672.17
2022-11-06T05:03:15.086Z,100675.57
2022-11-06T05:05:19.446Z,100674.44
2022-11-06T05:07:23.796Z,100673.62
2022-11-06T05:09:28.173Z,100666.27
2022-11-06T05:11:32.532Z,100668.58
2022-11-06T05:13:36.905Z,100669.44
2022-11-06T05:15:41.357Z,100669.46
2022-11-06T05:17:45.686Z,100667.52
2022-11-06T05:19:50.047Z,100664.85
2022-11-06T05:21:54.382Z,100661.38
2022-11-06T05:23:58.725Z,100659.03
2022-11-06T05:26:03.534Z,100657.76
2022-11-06T05:28:07.865Z,100652.14
2022-11-06T05:30:12.189Z,100654.79
2022-11-06T05:32:16.520Z,100652.7
2022-11-06T05:34:20.882Z,100655.27
2022-11-06T05:36:25.230Z,100654.8
2022-11-06T05:38:29.742Z,100659.68
2022-11-06T05:40:34.085Z,100657.84
2022-11-06T05:42:38.409Z,100658.79
2022-11-06T05:44:42.739Z,100665.44
2022-11-06T05:46:50.676Z,100666.02
2022-11-06T05:48:55.323Z,100667.47
2022-11-06T05:50:59.698Z,100663.07
2022-11-06T05:53:04.062Z,100662.11
2022-11-06T05:55:15.260Z,100665.91
2022-11-06T05:57:19.955Z,100662.64
2022-11-06T05:59:24.302Z,100661.81
2022-11-06T06:01:28.789Z,100668.73
2022-11-06T06:03:33.353Z,100664.86
2022-11-06T06:05:37.743Z,100668.97
2022-11-06T06:07:42.057Z,100669.7
2022-11-06T06:09:46.411Z,100667.5
2022-11-06T06:11:50.787Z,100662.36
2022-11-06T06:13:55.153Z,100657.88
2022-11-06T06:15:59.544Z,100660.86
2022-11-06T06:18:03.887Z,100660.31
2022-11-06T06:20:08.229Z,100661.06
2022-11-06T06:22:12.604Z,100665.74
2022-11-06T06:24:17.076Z,100670.59
2022-11-06T06:26:21.519Z,100667.67
2022-11-06T06:28:25.856Z,100666.8
2022-11-06T06:30:30.236Z,100671.59
2022-11-06T06:32:34.585Z,100672.86
2022-11-06T06:34:38.932Z,100676.53
2022-11-06T06:36:43.297Z,100681.55
2022-11-06T06:38:47.681Z,100681.05
2022-11-06T06:40:52.249Z,100679.38
2022-11-06T06:42:56.615Z,100686.88
2022-11-06T06:45:00.998Z,100689.72
2022-11-06T06:47:05.346Z,100691.58
2022-11-06T06:49:09.679Z,100691.73
2022-11-06T06:51:14.050Z,100692.54
2022-11-06T06:53:23.107Z,100695.79
2022-11-06T06:55:27.469Z,100694.8
2022-11-06T06:57:31.817Z,100692.77
2022-11-06T06:59:36.144Z,100693.3
2022-11-06T07:01:41.007Z,100690.06
2022-11-06T07:03:45.670Z,100696.38
2022-11-06T07:05:50.035Z,100700.41
2022-11-06T07:07:54.400Z,100701.56
2022-11-06T07:09:58.735Z,100700.41
2022-11-06T07:12:03.070Z,100700.53
2022-11-06T07:14:07.408Z,100704.09
2022-11-06T07:16:11.796Z,100703.22
2022-11-06T07:18:16.754Z,100701.27
2022-11-06T07:20:21.270Z,100698.33
2022-11-06T07:22:37.168Z,100698.97
2022-11-06T07:24:41.762Z,100694.63
2022-11-06T07:26:46.105Z,100695.44
2022-11-06T07:28:50.437Z,100696.97
2022-11-06T07:30:54.766Z,100690.59
2022-11-06T07:32:59.119Z,100690.02
2022-11-06T07:35:03.495Z,100687.31
2022-11-06T07:37:08.885Z,100687.19
2022-11-06T07:39:13.213Z,100683.94
2022-11-06T07:41:17.588Z,100687.98
2022-11-06T07:43:21.919Z,100690.43
2022-11-06T07:45:26.263Z,100684.56
2022-11-06T07:47:30.625Z,100682.19
2022-11-06T07:49:35.019Z,100683.77
2022-11-06T07:51:39.362Z,100685.42
2022-11-06T07:53:43.716Z,100682.36
2022-11-06T07:55:48.089Z,100680.28
2022-11-06T07:57:52.446Z,100679.09
2022-11-06T07:59:56.784Z,100680.33
2022-11-06T08:02:01.457Z,100678.1
2022-11-06T08:04:06.076Z,100679.91
2022-11-06T08:06:10.415Z,100682.2
2022-11-06T08:08:15.729Z,100683.32
2022-11-06T08:10:20.520Z,100685.44
2022-11-06T08:12:24.873Z,100686.57
2022-11-06T08:14:29.243Z,100684.23
2022-11-06T08:16:33.590Z,100682.03
2022-11-06T08:18:37.928Z,100681.13
2022-11-06T08:20:42.272Z,100684.84
2022-11-06T08:22:46.732Z,100685.3
2022-11-06T08:24:51.139Z,100685.08
2022-11-06T08:26:55.484Z,100683.56
2022-11-06T08:28:59.909Z,100680.01
2022-11-06T08:31:04.251Z,100684.48
2022-11-06T08:33:08.647Z,100682.66
2022-11-06T08:35:13.031Z,100682.73
2022-11-06T08:37:17.382Z,100682.05
2022-11-06T08:39:21.780Z,100678.73
2022-11-06T08:41:26.450Z,100675.89
2022-11-06T08:43:30.820Z,100675.51
2022-11-06T08:45:35.199Z,100673.58
2022-11-06T08:47:39.550Z,100673.81
2022-11-06T08:49:43.928Z,100676.31
2022-11-06T08:51:48.280Z,100668.09
2022-11-06T08:53:52.857Z,100665.92
2022-11-06T08:55:57.318Z,100667.06
2022-11-06T08:58:01.716Z,100668.99
2022-11-06T09:00:06.099Z,100672.31
2022-11-06T09:02:10.661Z,100674.78
2022-11-06T09:04:15.168Z,100674.77
2022-11-06T09:06:19.518Z,100675
2022-11-06T09:08:23.873Z,100673.4
2022-11-06T09:10:28.237Z,100668.36
2022-11-06T09:12:32.587Z,100669.91
2022-11-06T09:14:36.924Z,100669.49
2022-11-06T09:16:41.323Z,100677.78
2022-11-06T09:18:45.692Z,100668.75
2022-11-06T09:20:50.042Z,100672.08
2022-11-06T09:22:54.425Z,100667.87
2022-11-06T09:25:05.057Z,100666.35
2022-11-06T09:27:09.408Z,100664.05
2022-11-06T09:29:13.793Z,100664.81
2022-11-06T09:31:18.172Z,100666.71
2022-11-06T09:33:22.820Z,100668.8
2022-11-06T09:35:27.205Z,100670.72
2022-11-06T09:37:31.552Z,100669.05
2022-11-06T09:39:35.915Z,100668.44
2022-11-06T09:41:40.318Z,100673.89
2022-11-06T09:44:06.635Z,100670.88
2022-11-06T09:46:11.037Z,100671.06
2022-11-06T09:48:15.425Z,100672.8
2022-11-06T09:50:19.792Z,100669.58
2022-11-06T09:52:24.416Z,100667.98
2022-11-06T09:54:29.415Z,100668.06
2022-11-06T09:56:33.981Z,100667.02
2022-11-06T09:58:38.324Z,100667.54
2022-11-06T10:00:42.953Z,100672.45
2022-11-06T10:02:47.687Z,100665.28
2022-11-06T10:04:52.226Z,100664.73
2022-11-06T10:06:56.608Z,100662.57
2022-11-06T10:09:00.976Z,100663.2
2022-11-06T10:11:05.340Z,100657.95
2022-11-06T10:13:14.873Z,100657.52
2022-11-06T10:15:21.561Z,100656.64
2022-11-06T10:17:26.013Z,100656.13
2022-11-06T10:19:30.369Z,100651.23
2022-11-06T10:21:34.733Z,100651.64
2022-11-06T10:23:39.080Z,100646.78
2022-11-06T10:25:43.462Z,100643.27
2022-11-06T10:27:47.845Z,100642.42
2022-11-06T10:29:52.159Z,100639.94
2022-11-06T10:31:56.549Z,100644.64
2022-11-06T10:34:00.905Z,100641.27
2022-11-06T10:36:05.226Z,100634.66
2022-11-06T10:38:09.610Z,100626.25
2022-11-06T10:40:14.254Z,100625.91
2022-11-06T10:42:18.599Z,100623.39
2022-11-06T10:44:22.986Z,100622.6
2022-11-06T10:46:27.306Z,100615.44
2022-11-06T10:48:41.033Z,100615.06
2022-11-06T10:50:45.714Z,100609.16
2022-11-06T10:52:50.174Z,100600.58
2022-11-06T10:54:54.520Z,100594.56
2022-11-06T10:56:58.892Z,100586.7
2022-11-06T10:59:03.863Z,100578.59
2022-11-06T11:01:08.338Z,100584.17
2022-11-06T11:03:12.828Z,100577.32
2022-11-06T11:05:17.194Z,100578.5
2022-11-06T11:07:22.904Z,100574.8
2022-11-06T11:09:27.521Z,100582.48
2022-11-06T11:11:31.896Z,100578.47
2022-11-06T11:13:36.247Z,100575.23
2022-11-06T11:15:40.609Z,100571.59
2022-11-06T11:17:44.971Z,100564.03
2022-11-06T11:19:49.360Z,100562.33
2022-11-06T11:21:53.729Z,100563.36
2022-11-06T11:23:58.189Z,100558.72
2022-11-06T11:26:02.521Z,100550.47
2022-11-06T11:28:07.063Z,100546.01
2022-11-06T11:30:11.445Z,100540.92
2022-11-06T11:32:15.765Z,100542.39
2022-11-06T11:34:20.205Z,100536.16
2022-11-06T11:36:24.597Z,100518.98
2022-11-06T11:38:29.005Z,100514.08
2022-11-06T11:40:33.340Z,100517.17
2022-11-06T11:42:37.750Z,100516.45
2022-11-06T11:44:42.102Z,100511.47
2022-11-06T11:46:46.578Z,100514.09
2022-11-06T11:48:50.991Z,100516.78
2022-11-06T11:50:55.343Z,100504.11
2022-11-06T11:52:59.680Z,100499.96
2022-11-06T11:55:09.158Z,100503.78
2022-11-06T11:57:13.590Z,100502.45
2022-11-06T11:59:17.995Z,100496.88
2022-11-06T12:01:22.517Z,100492.95
2022-11-06T12:03:27.161Z,100491.7
2022-11-06T12:05:31.662Z,100494.2
2022-11-06T12:07:36.065Z,100483.84
2022-11-06T12:09:45.477Z,100482.56
2022-11-06T12:11:49.839Z,100475.91
2022-11-06T12:13:54.201Z,100477.22
2022-11-06T12:15:58.613Z,100476.74
2022-11-06T12:18:03.003Z,100483.28
2022-11-06T12:20:07.378Z,100472.52
2022-11-06T12:22:11.749Z,100477.94
2022-11-06T12:24:16.121Z,100480.27
2022-11-06T12:26:20.480Z,100473.91
2022-11-06T12:28:24.831Z,100473.74
2022-11-06T12:30:29.220Z,100476.23
2022-11-06T12:32:33.697Z,100475.19
2022-11-06T12:34:38.040Z,100479.25
2022-11-06T12:36:42.431Z,100474.2
2022-11-06T12:38:46.796Z,100467.13
2022-11-06T12:40:51.170Z,100457.26
2022-11-06T12:42:55.510Z,100454.98
2022-11-06T12:44:59.869Z,100451.52
2022-11-06T12:47:04.299Z,100453.59
2022-11-06T12:49:09.060Z,100447.64
2022-11-06T12:51:13.433Z,100448.32
2022-11-06T12:53:17.764Z,100446.04
2022-11-06T12:55:22.153Z,100445.46
2022-11-06T12:57:26.516Z,100444.84
2022-11-06T12:59:30.930Z,100439.19
2022-11-06T13:01:35.618Z,100444.5
2022-11-06T13:03:40.263Z,100436.22
2022-11-06T13:05:45.267Z,100438.5
2022-11-06T13:07:49.817Z,100440.61
2022-11-06T13:09:54.134Z,100436.63
2022-11-06T13:11:58.519Z,100439.63
2022-11-06T13:14:02.969Z,100442.73
2022-11-06T13:16:07.344Z,100432.49
2022-11-06T13:18:12.194Z,100439.98
2022-11-06T13:20:17.238Z,100431.45
2022-11-06T13:22:21.619Z,100432.98
2022-11-06T13:24:25.933Z,100423.64
2022-11-06T13:26:30.274Z,100430.72
2022-11-06T13:28:34.651Z,100426.64
2022-11-06T13:30:38.998Z,100427.66
2022-11-06T13:32:43.388Z,100420.52
2022-11-06T13:34:51.870Z,100421.94
2022-11-06T13:36:56.226Z,100417.95
2022-11-06T13:39:00.604Z,100410.97
2022-11-06T13:41:05.045Z,100410.48
2022-11-06T13:43:09.486Z,100406.77
2022-11-06T13:45:13.826Z,100408.92
2022-11-06T13:47:18.199Z,100403.23
2022-11-06T13:49:22.581Z,100409.87
2022-11-06T13:51:26.929Z,100413.84
2022-11-06T13:53:31.302Z,100405.44
2022-11-06T13:55:35.823Z,100405.07
2022-11-06T13:57:40.273Z,100405.99
2022-11-06T13:59:44.676Z,100403.13
2022-11-06T14:01:49.406Z,100404.02
2022-11-06T14:03:54.055Z,100403.5
2022-11-06T14:05:58.459Z,100397.84
2022-11-06T14:08:02.817Z,100401.29
2022-11-06T14:10:07.268Z,100400.06
2022-11-06T14:12:16.087Z,100402.48
2022-11-06T14:14:20.491Z,100401.97
2022-11-06T14:16:24.914Z,100402.63
2022-11-06T14:18:29.267Z,100396.77
2022-11-06T14:20:33.676Z,100394.41
2022-11-06T14:22:38.086Z,100397.37
2022-11-06T14:24:42.427Z,100398.04
2022-11-06T14:26:46.802Z,100394.56
2022-11-06T14:28:51.166Z,100390.95
2022-11-06T14:31:29.126Z,100393.75
2022-11-06T14:33:34.294Z,100386.3
2022-11-06T14:35:38.700Z,100382.27
2022-11-06T14:37:43.077Z,100387.11
2022-11-06T14:39:47.428Z,100379.7
2022-11-06T14:41:51.771Z,100380.7
2022-11-06T14:43:56.151Z,100383.58
2022-11-06T14:46:00.493Z,100379.98
2022-11-06T14:48:04.848Z,100380.62
2022-11-06T14:50:09.299Z,100378.12
2022-11-06T14:52:13.668Z,100374.26
2022-11-06T14:54:18.043Z,100373.2
2022-11-06T14:56:22.414Z,100372.3
2022-11-06T14:58:26.800Z,100374.58
2022-11-06T15:00:31.143Z,100374.34
2022-11-06T15:02:35.680Z,100369.95
2022-11-06T15:04:40.175Z,100369.62
2022-11-06T15:06:44.455Z,100366.92
2022-11-06T15:08:48.846Z,100364.42
2022-11-06T15:10:53.347Z,100365.47
2022-11-06T15:12:57.722Z,100363.67
2022-11-06T15:15:02.113Z,100362.23
2022-11-06T15:17:06.525Z,100360.09
2022-11-06T15:19:10.910Z,100357.44
2022-11-06T15:21:15.262Z,100353
2022-11-06T15:23:19.612Z,100347.31
2022-11-06T15:25:23.994Z,100345.5
2022-11-06T15:27:28.395Z,100347.74
2022-11-06T15:29:32.774Z,100347.66
2022-11-06T15:31:37.169Z,100348.19
2022-11-06T15:33:41.553Z,100346.19
2022-11-06T15:35:45.923Z,100336.08
2022-11-06T15:37:50.308Z,100336.75
2022-11-06T15:40:01.961Z,100328.1
2022-11-06T15:42:06.365Z,100318.44
2022-11-06T15:44:10.717Z,100317.5
2022-11-06T15:46:15.084Z,100318.03
2022-11-06T15:48:19.415Z,100321.46
2022-11-06T15:50:23.798Z,100322.92
2022-11-06T15:52:28.191Z,100321.88
2022-11-06T15:54:32.552Z,100315.44
2022-11-06T15:56:39.671Z,100319.79
2022-11-06T15:58:44.078Z,100326.67
2022-11-06T16:00:48.493Z,100328.91
2022-11-06T16:02:53.055Z,100334.9
2022-11-06T16:04:57.356Z,100340.54
2022-11-06T16:07:01.735Z,100339.8
2022-11-06T16:09:06.127Z,100335.32
2022-11-06T16:11:14.452Z,100333.73
2022-11-06T16:13:18.828Z,100330.8
2022-11-06T16:15:23.221Z,100329.81
2022-11-06T16:17:27.591Z,100328.44
2022-11-06T16:19:31.961Z,100321.61
2022-11-06T16:21:36.313Z,100320.04
2022-11-06T16:23:40.685Z,100319.72
2022-11-06T16:25:45.063Z,100315.55
2022-11-06T16:27:49.478Z,100318.11
2022-11-06T16:29:53.867Z,100317.45
2022-11-06T16:31:58.192Z,100315.81
2022-11-06T16:34:02.592Z,100311.61
2022-11-06T16:36:06.956Z,100313.08
2022-11-06T16:38:41.871Z,100312.34
2022-11-06T16:40:46.724Z,100313.15
2022-11-06T16:42:51.064Z,100310.41
2022-11-06T16:44:55.426Z,100303.41
2022-11-06T16:46:59.778Z,100301.51
2022-11-06T16:49:04.156Z,100315.55
2022-11-06T16:51:08.518Z,100312
2022-11-06T16:53:13.806Z,100315.11
2022-11-06T16:55:18.960Z,100309.03
2022-11-06T16:57:23.311Z,100308.78
2022-11-06T16:59:27.681Z,100308.42
2022-11-06T17:01:32.385Z,100309.05
2022-11-06T17:03:36.972Z,100299.84
2022-11-06T17:05:41.386Z,100302.45
2022-11-06T17:07:46.072Z,100302.25
2022-11-06T17:09:50.477Z,100301.42
2022-11-06T17:11:54.855Z,100296.36
2022-11-06T17:13:59.238Z,100295.05
2022-11-06T17:16:03.633Z,100292.25
2022-11-06T17:18:08.013Z,100294.41
2022-11-06T17:20:12.375Z,100287.5
2022-11-06T17:22:16.777Z,100288.85
2022-11-06T17:24:38.451Z,100291.64
2022-11-06T17:26:42.991Z,100291.48
2022-11-06T17:28:47.374Z,100294.85
2022-11-06T17:30:51.710Z,100291.7
2022-11-06T17:32:56.107Z,100291.63
2022-11-06T17:35:00.504Z,100289.71
2022-11-06T17:37:04.878Z,100286.61
2022-11-06T17:39:09.258Z,100282.83
2022-11-06T17:41:13.642Z,100281.56
2022-11-06T17:43:18.649Z,100279.72
2022-11-06T17:45:22.954Z,100276.86
2022-11-06T17:47:27.315Z,100276.23
2022-11-06T17:49:31.680Z,100276.66
2022-11-06T17:51:36.042Z,100274.45
2022-11-06T17:53:40.412Z,100277.93
2022-11-06T17:55:44.835Z,100274.05
2022-11-06T17:57:49.251Z,100273.97
2022-11-06T17:59:53.636Z,100274.88
2022-11-06T18:01:58.321Z,100277.13
2022-11-06T18:04:03.042Z,100272.3
2022-11-06T18:06:07.433Z,100262.78
2022-11-06T18:08:12.503Z,100253.77
2022-11-06T18:10:17.804Z,100254.73
2022-11-06T18:12:22.480Z,100256.96
2022-11-06T18:14:26.842Z,100259.86
2022-11-06T18:16:31.257Z,100254.83
2022-11-06T18:18:35.679Z,100257.53
2022-11-06T18:20:40.097Z,100255.8
2022-11-06T18:22:44.416Z,100255.52
2022-11-06T18:24:48.769Z,100256.23
2022-11-06T18:26:53.174Z,100258.11
2022-11-06T18:28:57.533Z,100254.25
2022-11-06T18:31:01.881Z,100250.98
2022-11-06T18:33:06.351Z,100250.96
2022-11-06T18:35:10.699Z,100252.45
2022-11-06T18:37:15.108Z,100252.46
2022-11-06T18:39:19.409Z,100251.78
2022-11-06T18:41:23.741Z,100256.45
2022-11-06T18:43:28.046Z,100254.12
2022-11-06T18:45:32.427Z,100254.45
2022-11-06T18:47:36.818Z,100268.55
2022-11-06T18:49:41.198Z,100270.81
2022-11-06T18:51:45.640Z,100256.23
2022-11-06T18:53:50.030Z,100259.15
2022-11-06T18:55:54.410Z,100258.12
2022-11-06T18:57:58.904Z,100254.57
2022-11-06T19:00:03.422Z,100256.48
2022-11-06T19:02:08.324Z,100251.7
2022-11-06T19:04:13.092Z,100245.8
2022-11-06T19:06:17.610Z,100243.64
2022-11-06T19:08:22.510Z,100242.63
2022-11-06T19:10:26.833Z,100243.31
2022-11-06T19:12:31.216Z,100247.38
2022-11-06T19:14:35.573Z,100247.77
2022-11-06T19:16:39.954Z,100242.48
2022-11-06T19:18:44.358Z,100245.59
2022-11-06T19:20:48.727Z,100248.71
2022-11-06T19:22:53.100Z,100251.48
2022-11-06T19:24:57.491Z,100256.47
2022-11-06T19:27:01.902Z,100253.92
2022-11-06T19:29:06.339Z,100253.78
2022-11-06T19:31:10.780Z,100252.26
2022-11-06T19:33:15.976Z,100247.27
2022-11-06T19:35:20.692Z,100243.78
2022-11-06T19:37:25.145Z,100248.84
2022-11-06T19:39:29.543Z,100245.52
2022-11-06T19:41:33.931Z,100241.83
2022-11-06T19:43:38.352Z,100243.77
2022-11-06T19:45:42.719Z,100245.81
2022-11-06T19:47:47.330Z,100242.7
2022-11-06T19:49:51.777Z,100242.21
2022-11-06T19:51:56.168Z,100242.66
2022-11-06T19:54:49.776Z,100241.48
2022-11-06T19:57:31.495Z,100236.45
2022-11-06T19:59:35.849Z,100241.77
2022-11-06T20:01:40.427Z,100235.56
2022-11-06T20:03:45.138Z,100229.28
2022-11-06T20:05:49.558Z,100224.23
2022-11-06T20:07:53.988Z,100223.31
2022-11-06T20:09:58.406Z,100226.11
2022-11-06T20:12:02.774Z,100226.09
2022-11-06T20:14:07.245Z,100221.25
2022-11-06T20:16:11.639Z,100220.3
2022-11-06T20:18:16.096Z,100214.08
2022-11-06T20:20:20.484Z,100219
2022-11-06T20:22:24.827Z,100222.78
2022-11-06T20:24:29.224Z,100211.68
2022-11-06T20:26:33.569Z,100207.13
2022-11-06T20:28:37.989Z,100200.16
2022-11-06T20:30:42.454Z,100204.36
2022-11-06T20:32:46.858Z,100204.84
2022-11-06T20:34:51.264Z,100206.22
2022-11-06T20:36:55.749Z,100207.42
2022-11-06T20:39:00.121Z,100202.8
2022-11-06T20:41:04.533Z,100205.33
2022-11-06T20:43:08.999Z,100205.84
2022-11-06T20:45:13.424Z,100200.45
2022-11-06T20:47:17.796Z,100206.2
2022-11-06T20:49:22.305Z,100198.48
2022-11-06T20:51:26.741Z,100197.61
2022-11-06T20:53:31.132Z,100194.38
2022-11-06T20:55:35.535Z,100193.23
2022-11-06T20:57:39.879Z,100197.08
2022-11-06T20:59:44.275Z,100192.56
2022-11-06T21:01:49.063Z,100188.98
2022-11-06T21:03:53.777Z,100198.51
2022-11-06T21:05:58.255Z,100192.73
2022-11-06T21:08:02.662Z,100191.23
2022-11-06T21:10:07.430Z,100188.41
2022-11-06T21:12:11.832Z,100187.64
2022-11-06T21:14:16.179Z,100189.2
2022-11-06T21:16:20.572Z,100185.4
2022-11-06T21:18:24.970Z,100186.59
2022-11-06T21:20:29.320Z,100186.26
2022-11-06T21:22:33.713Z,100187.63
2022-11-06T21:24:38.051Z,100196.63
2022-11-06T21:26:42.465Z,100199.14
2022-11-06T21:28:46.876Z,100201.12
2022-11-06T21:30:51.277Z,100195.34
2022-11-06T21:32:55.674Z,100196.36
2022-11-06T21:35:00.130Z,100197.69
2022-11-06T21:37:04.577Z,100204.8
2022-11-06T21:39:09.064Z,100204.66
2022-11-06T21:41:13.438Z,100203.17
2022-11-06T21:43:17.904Z,100198.11
2022-11-06T21:45:22.315Z,100197.46
2022-11-06T21:47:26.693Z,100194.13
2022-11-06T21:49:31.145Z,100191.52
2022-11-06T21:51:35.519Z,100183.02
2022-11-06T21:53:39.876Z,100185.56
2022-11-06T21:55:44.288Z,100185.09
2022-11-06T21:57:53.358Z,100179.92
2022-11-06T21:59:57.712Z,100176.7
2022-11-06T22:02:02.456Z,100177.01
2022-11-06T22:04:07.054Z,100166.44
2022-11-06T22:06:11.401Z,100168.3
2022-11-06T22:08:16.391Z,100161.75
2022-11-06T22:10:21.153Z,100154.1
2022-11-06T22:12:26.710Z,100158.22
2022-11-06T22:14:31.070Z,100153.49
2022-11-06T22:16:35.460Z,100143.06
2022-11-06T22:18:39.846Z,100138.62
2022-11-06T22:20:44.223Z,100140.72
2022-11-06T22:22:48.615Z,100133.95
2022-11-06T22:24:52.969Z,100137.78
2022-11-06T22:26:57.386Z,100130.98
2022-11-06T22:29:01.724Z,100129.93
2022-11-06T22:31:06.272Z,100120.61
2022-11-06T22:33:10.795Z,100116.56
2022-11-06T22:35:15.991Z,100109.54
2022-11-06T22:37:20.540Z,100114.09
2022-11-06T22:39:24.921Z,100105.77
2022-11-06T22:41:29.297Z,100098.09
2022-11-06T22:43:33.971Z,100094.97
2022-11-06T22:45:38.527Z,100094.43
2022-11-06T22:47:43.149Z,100094.61
2022-11-06T22:49:47.494Z,100099.88
2022-11-06T22:51:51.910Z,100107.49
2022-11-06T22:53:56.259Z,100104.27
2022-11-06T22:56:00.678Z,100101.48
2022-11-06T22:58:05.021Z,100096.45
2022-11-06T23:00:09.401Z,100096.8
2022-11-06T23:02:13.973Z,100090.83
2022-11-06T23:04:18.534Z,100087.16
2022-11-06T23:06:22.878Z,100088.65
2022-11-06T23:08:27.235Z,100095.38
2022-11-06T23:10:31.714Z,100099.22
2022-11-06T23:12:36.049Z,100100.95
2022-11-06T23:14:40.399Z,100099.94
2022-11-06T23:16:44.789Z,100101.27
2022-11-06T23:18:49.111Z,100096.2
2022-11-06T23:20:53.489Z,100097.91
2022-11-06T23:22:57.848Z,100086.52
2022-11-06T23:25:02.192Z,100084.63
2022-11-06T23:27:06.559Z,100076.52
2022-11-06T23:29:10.896Z,100072.06
2022-11-06T23:31:15.237Z,100065.81
2022-11-06T23:33:19.636Z,100071.89
2022-11-06T23:35:28.174Z,100070.33
2022-11-06T23:37:36.435Z,100068.39
2022-11-06T23:39:40.815Z,100064.39
2022-11-06T23:41:45.159Z,100068.13
2022-11-06T23:43:50.027Z,100066.91
2022-11-06T23:45:54.391Z,100067
2022-11-06T23:47:58.713Z,100062.52
2022-11-06T23:50:07.970Z,100054.17